createdAt,value
2024-05-09T00:00:36.363Z,100.00
2024-05-09T00:03:10.866Z,100.00
2024-05-09T00:05:42.675Z,100.00
2024-05-09T00:08:10.504Z,100.00
2024-05-09T00:10:39.262Z,100.00
2024-05-09T00:13:07.767Z,100.00
2024-05-09T00:15:35.548Z,100.00
2024-05-09T00:18:03.374Z,100.00
2024-05-09T00:20:37.648Z,100.00
2024-05-09T00:23:08.752Z,100.00
2024-05-09T00:25:35.953Z,100.00
2024-05-09T00:28:03.069Z,100.00
2024-05-09T00:30:34.594Z,100.00
2024-05-09T00:33:08.189Z,100.00
2024-05-09T00:35:36.552Z,100.00
2024-05-09T00:38:03.975Z,100.00
2024-05-09T00:40:39.883Z,100.00
2024-05-09T00:43:09.863Z,100.00
2024-05-09T00:45:36.716Z,100.00
2024-05-09T00:48:09.089Z,100.00
2024-05-09T00:50:39.094Z,100.00
2024-05-09T00:53:11.372Z,100.00
2024-05-09T00:55:39.366Z,100.00
2024-05-09T00:58:07.934Z,100.00
2024-05-09T01:00:39.281Z,100.00
2024-05-09T01:03:12.717Z,100.00
2024-05-09T01:05:42.091Z,100.00
2024-05-09T01:08:09.725Z,100.00
2024-05-09T01:10:42.832Z,100.00
2024-05-09T01:13:11.761Z,100.00
2024-05-09T01:15:38.512Z,100.00
2024-05-09T01:18:13.468Z,100.00
2024-05-09T01:20:43.794Z,100.00
2024-05-09T01:23:14.179Z,100.00
2024-05-09T01:25:43.092Z,100.00
2024-05-09T01:28:10.074Z,100.00
2024-05-09T01:30:37.871Z,100.00
2024-05-09T01:33:07.915Z,100.00
2024-05-09T01:35:36.652Z,100.00
2024-05-09T01:38:03.638Z,100.00
2024-05-09T01:40:37.246Z,100.00
2024-05-09T01:43:07.021Z,100.00
2024-05-09T01:45:33.968Z,100.00
2024-05-09T01:48:01.132Z,100.00
2024-05-09T01:50:37.709Z,100.00
2024-05-09T01:53:12.640Z,100.00
2024-05-09T01:55:39.967Z,100.00
2024-05-09T01:58:07.418Z,100.00
2024-05-09T02:00:39.666Z,100.00
2024-05-09T02:03:15.718Z,100.00
2024-05-09T02:05:46.167Z,100.00
2024-05-09T02:08:15.510Z,100.00
2024-05-09T02:10:44.101Z,100.00
2024-05-09T02:13:11.320Z,100.00
2024-05-09T02:15:38.115Z,100.00
2024-05-09T02:18:05.581Z,100.00
2024-05-09T02:20:36.293Z,100.00
2024-05-09T02:23:06.210Z,100.00
2024-05-09T02:25:33.551Z,100.00
2024-05-09T02:28:00.491Z,100.00
2024-05-09T02:30:37.857Z,100.00
2024-05-09T02:33:09.198Z,100.00
2024-05-09T02:35:37.074Z,100.00
2024-05-09T02:38:04.388Z,100.00
2024-05-09T02:40:37.412Z,100.00
2024-05-09T02:43:12.519Z,100.00
2024-05-09T02:45:40.447Z,100.00
2024-05-09T02:48:10.123Z,100.00
2024-05-09T02:50:39.522Z,100.00
2024-05-09T02:53:08.228Z,100.00
2024-05-09T02:55:35.407Z,100.00
2024-05-09T02:58:02.276Z,100.00
2024-05-09T03:00:37.659Z,100.00
2024-05-09T03:03:10.445Z,100.00
2024-05-09T03:05:39.407Z,100.00
2024-05-09T03:08:06.656Z,100.00
2024-05-09T03:10:36.584Z,100.00
2024-05-09T03:13:09.869Z,100.00
2024-05-09T03:15:36.787Z,100.00
2024-05-09T03:18:04.706Z,100.00
2024-05-09T03:20:34.904Z,100.00
2024-05-09T03:23:04.060Z,100.00
2024-05-09T03:25:31.096Z,100.00
2024-05-09T03:27:57.858Z,100.00
2024-05-09T03:30:36.651Z,100.00
2024-05-09T03:33:13.222Z,100.00
2024-05-09T03:35:41.049Z,100.00
2024-05-09T03:38:07.882Z,100.00
2024-05-09T03:40:34.651Z,100.00
2024-05-09T03:43:01.492Z,100.00
2024-05-09T03:45:28.255Z,100.00
2024-05-09T03:47:55.258Z,100.00
2024-05-09T03:50:29.689Z,100.00
2024-05-09T03:53:01.341Z,100.00
2024-05-09T03:55:28.627Z,100.00
2024-05-09T03:57:55.431Z,100.00
2024-05-09T04:00:30.896Z,100.00
2024-05-09T04:03:04.334Z,100.00
2024-05-09T04:05:32.937Z,100.00
2024-05-09T04:07:59.835Z,100.00
2024-05-09T04:10:32.842Z,100.00
2024-05-09T04:13:01.399Z,100.00
2024-05-09T04:15:28.226Z,100.00
2024-05-09T04:17:55.829Z,100.00
2024-05-09T04:20:33.782Z,100.00
2024-05-09T04:23:06.540Z,100.00
2024-05-09T04:25:33.625Z,100.00
2024-05-09T04:28:00.454Z,100.00
2024-05-09T04:30:36.332Z,100.00
2024-05-09T04:33:08.105Z,100.00
2024-05-09T04:35:36.824Z,100.00
2024-05-09T04:38:04.807Z,100.00
2024-05-09T04:40:35.080Z,100.00
2024-05-09T04:43:04.490Z,100.00
2024-05-09T04:45:31.417Z,100.00
2024-05-09T04:47:58.723Z,100.00
2024-05-09T04:50:35.227Z,100.00
2024-05-09T04:53:05.973Z,100.00
2024-05-09T04:55:36.068Z,100.00
2024-05-09T04:58:02.856Z,100.00
2024-05-09T05:00:35.908Z,100.00
2024-05-09T05:03:12.869Z,100.00
2024-05-09T05:05:42.125Z,100.00
2024-05-09T05:08:13.124Z,100.00
2024-05-09T05:10:40.786Z,100.00
2024-05-09T05:13:18.252Z,100.00
2024-05-09T05:15:49.865Z,100.00
2024-05-09T05:18:17.111Z,100.00
2024-05-09T05:20:44.838Z,100.00
2024-05-09T05:23:13.760Z,100.00
2024-05-09T05:25:41.348Z,100.00
2024-05-09T05:28:08.243Z,100.00
2024-05-09T05:30:37.628Z,100.00
2024-05-09T05:33:05.698Z,100.00
2024-05-09T05:35:32.907Z,100.00
2024-05-09T05:38:00.160Z,100.00
2024-05-09T05:40:33.398Z,100.00
2024-05-09T05:43:08.659Z,100.00
2024-05-09T05:45:35.787Z,100.00
2024-05-09T05:48:06.628Z,100.00
2024-05-09T05:50:36.924Z,100.00
2024-05-09T05:53:09.173Z,100.00
2024-05-09T05:55:37.475Z,100.00
2024-05-09T05:58:04.515Z,100.00
2024-05-09T06:00:38.240Z,100.00
2024-05-09T06:03:07.564Z,100.00
2024-05-09T06:05:44.223Z,100.00
2024-05-09T06:08:11.661Z,100.00
2024-05-09T06:10:40.584Z,100.00
2024-05-09T06:13:11.290Z,100.00
2024-05-09T06:15:38.665Z,100.00
2024-05-09T06:18:09.951Z,100.00
2024-05-09T06:20:39.652Z,100.00
2024-05-09T06:23:07.058Z,100.00
2024-05-09T06:25:34.828Z,100.00
2024-05-09T06:28:01.821Z,100.00
2024-05-09T06:30:37.122Z,100.00
2024-05-09T06:33:08.674Z,100.00
2024-05-09T06:35:36.125Z,100.00
2024-05-09T06:38:03.083Z,100.00
2024-05-09T06:40:37.134Z,100.00
2024-05-09T06:43:11.540Z,100.00
2024-05-09T06:45:39.778Z,100.00
2024-05-09T06:48:07.557Z,100.00
2024-05-09T06:50:37.946Z,100.00
2024-05-09T06:53:06.563Z,99.56
2024-05-09T06:55:33.359Z,98.36
2024-05-09T06:58:00.425Z,99.23
2024-05-09T07:00:35.094Z,98.73
2024-05-09T07:03:11.183Z,95.73
2024-05-09T07:05:39.211Z,94.63
2024-05-09T07:08:06.874Z,92.79
2024-05-09T07:10:35.917Z,93.25
2024-05-09T07:13:07.602Z,92.07
2024-05-09T07:15:34.357Z,90.81
2024-05-09T07:18:01.237Z,89.73
2024-05-09T07:20:34.539Z,92.76
2024-05-09T07:23:05.306Z,89.92
2024-05-09T07:25:32.368Z,90.64
2024-05-09T07:27:59.150Z,86.79
2024-05-09T07:30:31.007Z,87.13
2024-05-09T07:33:01.450Z,88.93
2024-05-09T07:35:28.949Z,84.24
2024-05-09T07:37:55.832Z,83.82
2024-05-09T07:40:32.323Z,85.53
2024-05-09T07:43:07.916Z,84.79
2024-05-09T07:52:32.596Z,84.43
2024-05-09T07:55:55.446Z,84.31
2024-05-09T07:58:27.112Z,86.21
2024-05-09T08:00:54.723Z,81.53
2024-05-09T08:03:22.392Z,83.70
2024-05-09T08:05:49.171Z,80.50
2024-05-09T08:08:15.945Z,79.94
2024-05-09T08:10:42.735Z,81.73
2024-05-09T08:13:09.669Z,78.37
2024-05-09T08:15:37.900Z,78.51
2024-05-09T08:18:10.760Z,78.15
2024-05-09T08:20:41.767Z,77.80
2024-05-09T08:23:08.533Z,76.89
2024-05-09T08:25:36.447Z,79.80
2024-05-09T08:28:04.887Z,78.25
2024-05-09T08:30:36.822Z,79.03
2024-05-09T08:33:06.515Z,78.53
2024-05-09T08:35:34.309Z,77.92
2024-05-09T08:38:05.371Z,78.05
2024-05-09T08:40:35.838Z,74.82
2024-05-09T08:43:09.806Z,76.26
2024-05-09T08:45:39.050Z,76.98
2024-05-09T08:48:08.457Z,75.84
2024-05-09T08:50:39.423Z,75.75
2024-05-09T08:53:07.779Z,76.56
2024-05-09T08:55:37.389Z,74.22
2024-05-09T08:58:07.505Z,76.02
2024-05-09T09:00:37.271Z,75.90
2024-05-09T09:03:06.942Z,76.10
2024-05-09T09:05:35.335Z,74.94
2024-05-09T09:08:06.547Z,73.72
2024-05-09T09:10:33.728Z,74.73
2024-05-09T09:13:05.233Z,74.89
2024-05-09T09:15:33.030Z,73.44
2024-05-09T09:18:01.059Z,74.33
2024-05-09T09:20:35.825Z,73.44
2024-05-09T09:23:04.632Z,74.32
2024-05-09T09:25:31.932Z,74.66
2024-05-09T09:27:59.015Z,73.85
2024-05-09T09:30:36.264Z,75.09
2024-05-09T09:33:14.102Z,73.47
2024-05-09T09:35:42.113Z,70.75
2024-05-09T09:38:10.540Z,72.25
2024-05-09T09:40:43.010Z,71.18
2024-05-09T09:43:23.376Z,70.22
2024-05-09T09:45:51.670Z,71.30
2024-05-09T09:48:20.182Z,69.88
2024-05-09T09:50:48.622Z,69.58
2024-05-09T09:53:16.154Z,72.02
2024-05-09T09:55:43.853Z,72.28
2024-05-09T09:58:13.481Z,69.43
2024-05-09T10:00:41.563Z,67.52
2024-05-09T10:03:08.671Z,70.16
2024-05-09T10:05:35.847Z,70.05
2024-05-09T10:08:07.505Z,70.74
2024-05-09T10:10:35.283Z,71.85
2024-05-09T10:13:06.944Z,67.29
2024-05-09T10:15:45.458Z,68.95
2024-05-09T10:18:12.744Z,67.25
2024-05-09T10:20:46.364Z,66.74
2024-05-09T10:23:41.158Z,69.07
2024-05-09T10:26:07.925Z,68.25
2024-05-09T10:28:36.971Z,65.72
2024-05-09T10:31:07.423Z,64.12
2024-05-09T10:33:39.143Z,62.75
2024-05-09T10:36:19.626Z,62.93
2024-05-09T10:38:46.550Z,62.49
2024-05-09T10:41:13.386Z,62.42
2024-05-09T10:43:41.062Z,63.48
2024-05-09T10:46:08.787Z,61.89
2024-05-09T10:48:39.684Z,60.34
2024-05-09T10:51:06.598Z,61.67
2024-05-09T10:53:40.552Z,60.47
2024-05-09T10:56:07.520Z,61.79
2024-05-09T10:58:34.206Z,59.25
2024-05-09T11:01:04.354Z,57.19
2024-05-09T11:03:33.228Z,58.22
2024-05-09T11:06:00.087Z,58.80
2024-05-09T11:08:26.930Z,57.55
2024-05-09T11:10:56.424Z,57.60
2024-05-09T11:13:34.002Z,57.97
2024-05-09T11:16:02.323Z,55.30
2024-05-09T11:18:35.009Z,55.71
2024-05-09T11:21:13.287Z,53.73
2024-05-09T11:23:40.617Z,53.49
2024-05-09T11:26:07.519Z,53.47
2024-05-09T11:28:35.767Z,53.15
2024-05-09T11:31:10.855Z,53.90
2024-05-09T11:33:47.295Z,53.44
2024-05-09T11:36:14.838Z,53.85
2024-05-09T11:38:41.794Z,53.03
2024-05-09T11:41:08.643Z,53.15
2024-05-09T11:43:35.540Z,54.17
2024-05-09T11:46:03.744Z,54.39
2024-05-09T11:48:31.540Z,53.17
2024-05-09T11:50:58.508Z,52.93
2024-05-09T11:53:25.320Z,55.25
2024-05-09T11:55:52.168Z,52.37
2024-05-09T11:58:19.459Z,50.46
2024-05-09T12:00:47.104Z,52.28
2024-05-09T12:03:14.383Z,52.69
2024-05-09T12:05:41.511Z,51.48
2024-05-09T12:08:08.435Z,52.72
2024-05-09T12:10:36.646Z,52.43
2024-05-09T12:13:06.036Z,52.74
2024-05-09T12:15:37.015Z,50.69
2024-05-09T12:18:05.188Z,51.01
2024-05-09T12:20:37.360Z,53.74
2024-05-09T12:23:07.193Z,52.96
2024-05-09T12:25:34.654Z,53.83
2024-05-09T12:28:01.563Z,52.67
2024-05-09T12:30:35.880Z,52.02
2024-05-09T12:33:07.588Z,52.16
2024-05-09T12:35:34.609Z,51.19
2024-05-09T12:38:01.351Z,50.01
2024-05-09T12:40:35.568Z,51.09
2024-05-09T12:43:06.502Z,50.85
2024-05-09T12:45:33.688Z,48.98
2024-05-09T12:48:00.817Z,49.25
2024-05-09T12:50:32.600Z,51.31
2024-05-09T12:53:02.061Z,49.89
2024-05-09T12:55:33.983Z,50.12
2024-05-09T12:58:07.951Z,49.12
2024-05-09T13:00:35.083Z,49.68
2024-05-09T13:03:02.054Z,49.41
2024-05-09T13:05:29.522Z,49.69
2024-05-09T13:07:57.023Z,48.73
2024-05-09T13:10:31.137Z,45.90
2024-05-09T13:13:00.669Z,47.06
2024-05-09T13:15:28.077Z,49.71
2024-05-09T13:17:57.916Z,48.43
2024-05-09T13:20:32.388Z,48.42
2024-05-09T13:23:02.339Z,47.38
2024-05-09T13:25:29.768Z,47.10
2024-05-09T13:27:57.426Z,46.86
2024-05-09T13:32:54.929Z,47.61
2024-05-09T13:35:21.775Z,46.89
2024-05-09T13:37:48.580Z,48.88
2024-05-09T13:40:23.204Z,48.39
2024-05-09T13:42:54.182Z,48.44
2024-05-09T13:45:20.904Z,46.99
2024-05-09T13:47:47.776Z,46.38
2024-05-09T13:50:23.651Z,48.15
2024-05-09T13:52:58.275Z,46.86
2024-05-09T13:55:25.053Z,46.59
2024-05-09T13:57:52.036Z,46.35
2024-05-09T14:00:31.709Z,47.09
2024-05-09T14:03:05.829Z,45.69
2024-05-09T14:05:32.684Z,47.29
2024-05-09T14:07:59.524Z,47.36
2024-05-09T14:10:30.988Z,45.59
2024-05-09T14:12:58.848Z,45.36
2024-05-09T14:15:25.663Z,46.85
2024-05-09T14:17:52.513Z,44.25
2024-05-09T14:20:27.928Z,45.11
2024-05-09T14:22:58.086Z,43.78
2024-05-09T14:25:26.717Z,43.12
2024-05-09T14:27:54.082Z,42.96
2024-05-09T14:30:30.195Z,43.45
2024-05-09T14:33:03.001Z,43.39
2024-05-09T14:35:29.818Z,44.26
2024-05-09T14:37:56.563Z,43.68
2024-05-09T14:40:34.881Z,42.91
2024-05-09T14:43:06.734Z,45.08
2024-05-09T14:45:34.627Z,43.44
2024-05-09T14:48:02.376Z,44.26
2024-05-09T14:50:35.804Z,44.43
2024-05-09T14:53:06.960Z,42.53
2024-05-09T14:55:37.030Z,44.20
2024-05-09T14:58:09.130Z,43.61
2024-05-09T15:00:48.039Z,44.11
2024-05-09T15:03:21.698Z,46.56
2024-05-09T15:05:49.345Z,44.39
2024-05-09T15:08:17.448Z,42.54
2024-05-09T15:10:44.334Z,41.51
2024-05-09T15:13:13.264Z,41.80
2024-05-09T15:15:41.916Z,40.80
2024-05-09T15:18:08.874Z,42.26
2024-05-09T15:20:37.188Z,41.33
2024-05-09T15:23:05.346Z,36.92
2024-05-09T15:25:33.723Z,33.08
2024-05-09T15:28:00.717Z,31.65
2024-05-09T15:30:31.994Z,30.88
2024-05-09T15:33:01.321Z,31.96
2024-05-09T15:35:28.405Z,30.77
2024-05-09T15:37:55.528Z,31.26
2024-05-09T15:40:31.370Z,32.78
2024-05-09T15:43:05.626Z,32.66
2024-05-09T15:45:32.840Z,32.71
2024-05-09T15:48:00.226Z,33.58
2024-05-09T15:50:35.968Z,31.01
2024-05-09T15:53:07.697Z,28.75
2024-05-09T15:55:35.364Z,26.86
2024-05-09T15:58:03.418Z,26.86
2024-05-09T16:00:38.328Z,26.68
2024-05-09T16:03:13.032Z,28.48
2024-05-09T16:05:41.747Z,30.08
2024-05-09T16:08:08.827Z,32.11
2024-05-09T16:10:37.074Z,32.49
2024-05-09T16:13:05.097Z,33.97
2024-05-09T16:15:32.195Z,35.55
2024-05-09T16:17:59.843Z,33.85
2024-05-09T16:20:35.017Z,30.33
2024-05-09T16:23:08.051Z,27.50
2024-05-09T16:25:35.114Z,27.50
2024-05-09T16:28:04.388Z,26.05
2024-05-09T16:30:35.570Z,23.85
2024-05-09T16:33:04.767Z,24.37
2024-05-09T16:35:32.180Z,25.62
2024-05-09T16:38:01.419Z,25.62
2024-05-09T16:40:36.212Z,24.68
2024-05-09T16:43:06.700Z,100.00
2024-05-09T16:45:33.992Z,100.00
2024-05-09T16:48:01.623Z,100.00
2024-05-09T16:50:33.373Z,100.00
2024-05-09T16:53:02.680Z,100.00
2024-05-09T16:55:29.608Z,100.00
2024-05-09T16:57:57.167Z,100.00
2024-05-09T17:00:35.471Z,100.00
2024-05-09T17:03:09.111Z,100.00
2024-05-09T17:05:36.642Z,100.00
2024-05-09T17:08:04.045Z,100.00
2024-05-09T17:10:33.791Z,100.00
2024-05-09T17:13:03.342Z,100.00
2024-05-09T17:15:31.636Z,100.00
2024-05-09T17:17:58.537Z,100.00
2024-05-09T17:20:32.182Z,100.00
2024-05-09T17:23:02.739Z,100.00
2024-05-09T17:25:29.672Z,100.00
2024-05-09T17:27:57.402Z,100.00
2024-05-09T17:30:29.400Z,100.00
2024-05-09T17:33:03.047Z,100.00
2024-05-09T17:35:29.989Z,100.00
2024-05-09T17:37:58.101Z,100.00
2024-05-09T17:40:31.365Z,100.00
2024-05-09T17:43:02.276Z,100.00
2024-05-09T17:45:29.359Z,100.00
2024-05-09T17:47:56.280Z,100.00
2024-05-09T17:50:30.324Z,100.00
2024-05-09T17:53:01.732Z,100.00
2024-05-09T17:55:29.063Z,100.00
2024-05-09T17:57:56.040Z,100.00
2024-05-09T18:00:33.160Z,100.00
2024-05-09T18:03:05.786Z,100.00
2024-05-09T18:05:32.966Z,100.00
2024-05-09T18:08:00.020Z,100.00
2024-05-09T18:10:33.769Z,100.00
2024-05-09T18:13:05.829Z,100.00
2024-05-09T18:15:33.163Z,100.00
2024-05-09T18:18:00.426Z,100.00
2024-05-09T18:20:37.336Z,100.00
2024-05-09T18:23:09.923Z,100.00
2024-05-09T18:25:36.698Z,100.00
2024-05-09T18:28:03.723Z,100.00
2024-05-09T18:30:34.983Z,100.00
2024-05-09T18:33:05.107Z,100.00
2024-05-09T18:35:33.222Z,100.00
2024-05-09T18:38:00.052Z,100.00
2024-05-09T18:40:33.418Z,100.00
2024-05-09T18:43:04.232Z,100.00
2024-05-09T18:45:31.336Z,100.00
2024-05-09T18:47:58.330Z,100.00
2024-05-09T18:50:34.209Z,100.00
2024-05-09T18:53:12.185Z,100.00
2024-05-09T18:55:40.609Z,100.00
2024-05-09T18:58:07.375Z,100.00
2024-05-09T19:00:37.878Z,100.00
2024-05-09T19:03:09.991Z,100.00
2024-05-09T19:05:39.352Z,100.00
2024-05-09T19:08:07.602Z,100.00
2024-05-09T19:10:35.783Z,100.00
2024-05-09T19:13:08.076Z,100.00
2024-05-09T19:15:38.813Z,100.00
2024-05-09T19:18:06.182Z,100.00
2024-05-09T19:20:35.270Z,100.00
2024-05-09T19:23:03.631Z,100.00
2024-05-09T19:25:30.729Z,100.00
2024-05-09T19:27:57.677Z,100.00
2024-05-09T19:30:33.015Z,100.00
2024-05-09T19:33:05.586Z,100.00
2024-05-09T19:35:32.549Z,100.00
2024-05-09T19:37:59.360Z,100.00
2024-05-09T19:40:31.350Z,100.00
2024-05-09T19:43:01.478Z,100.00
2024-05-09T19:45:28.976Z,100.00
2024-05-09T19:47:56.242Z,100.00
2024-05-09T19:50:31.713Z,100.00
2024-05-09T19:53:06.097Z,100.00
2024-05-09T19:55:33.329Z,100.00
2024-05-09T19:58:04.476Z,100.00
2024-05-09T20:00:36.548Z,100.00
2024-05-09T20:03:05.745Z,100.00
2024-05-09T20:05:33.442Z,100.00
2024-05-09T20:08:00.409Z,100.00
2024-05-09T20:10:32.109Z,100.00
2024-05-09T20:13:01.156Z,100.00
2024-05-09T20:15:28.115Z,100.00
2024-05-09T20:17:55.111Z,100.00
2024-05-09T20:22:52.103Z,100.00
2024-05-09T20:25:18.899Z,100.00
2024-05-09T20:27:45.805Z,100.00
2024-05-09T20:30:17.227Z,100.00
2024-05-09T20:32:51.656Z,100.00
2024-05-09T20:35:18.388Z,100.00
2024-05-09T20:37:45.147Z,100.00
2024-05-09T20:40:18.443Z,100.00
2024-05-09T20:42:52.146Z,100.00
2024-05-09T20:45:19.201Z,100.00
2024-05-09T20:47:46.057Z,100.00
2024-05-09T20:50:23.088Z,100.00
2024-05-09T20:52:55.522Z,100.00
2024-05-09T20:55:22.391Z,100.00
2024-05-09T20:57:49.236Z,100.00
2024-05-09T21:00:19.190Z,100.00
2024-05-09T21:02:52.115Z,100.00
2024-05-09T21:05:19.517Z,100.00
2024-05-09T21:07:46.423Z,100.00
2024-05-09T21:10:19.368Z,100.00
2024-05-09T21:12:49.491Z,100.00
2024-05-09T21:15:16.249Z,100.00
2024-05-09T21:17:43.198Z,100.00
2024-05-09T21:20:17.020Z,100.00
2024-05-09T21:22:47.122Z,100.00
2024-05-09T21:25:14.375Z,100.00
2024-05-09T21:27:41.187Z,100.00
2024-05-09T21:30:13.216Z,100.00
2024-05-09T21:32:45.644Z,100.00
2024-05-09T21:35:12.725Z,100.00
2024-05-09T21:37:39.418Z,100.00
2024-05-09T21:40:11.437Z,100.00
2024-05-09T21:42:40.824Z,100.00
2024-05-09T21:45:08.032Z,100.00
2024-05-09T21:47:34.970Z,100.00
2024-05-09T21:50:01.753Z,100.00
2024-05-09T21:52:28.538Z,100.00
2024-05-09T21:54:55.536Z,100.00
2024-05-09T21:57:22.379Z,100.00
2024-05-09T21:59:49.112Z,100.00
2024-05-09T22:02:16.061Z,100.00
2024-05-09T22:04:43.031Z,100.00
2024-05-09T22:07:10.123Z,100.00
2024-05-09T22:09:37.118Z,100.00
2024-05-09T22:12:04.747Z,100.00
2024-05-09T22:14:31.708Z,100.00
2024-05-09T22:16:58.511Z,100.00
2024-05-09T22:19:25.662Z,100.00
2024-05-09T22:21:52.663Z,100.00
2024-05-09T22:24:19.434Z,100.00
2024-05-09T22:26:46.187Z,100.00
2024-05-09T22:29:12.897Z,100.00
2024-05-09T22:31:39.643Z,100.00
2024-05-09T22:34:06.509Z,100.00
2024-05-09T22:36:33.453Z,100.00
2024-05-09T22:39:00.378Z,100.00
2024-05-09T22:41:27.154Z,100.00
2024-05-09T22:43:53.900Z,100.00
2024-05-09T22:46:20.691Z,100.00
2024-05-09T22:48:47.653Z,100.00
2024-05-09T22:51:14.468Z,100.00
2024-05-09T22:53:41.179Z,100.00
2024-05-09T22:56:08.100Z,100.00
2024-05-09T22:58:34.864Z,100.00
2024-05-09T23:01:01.840Z,100.00
2024-05-09T23:03:28.874Z,100.00
2024-05-09T23:05:55.712Z,100.00
2024-05-09T23:08:22.456Z,100.00
2024-05-09T23:10:49.243Z,100.00
2024-05-09T23:13:16.314Z,100.00
2024-05-09T23:15:43.174Z,100.00
2024-05-09T23:18:10.200Z,100.00
2024-05-09T23:20:39.467Z,100.00
2024-05-09T23:23:11.548Z,100.00
2024-05-09T23:25:41.098Z,100.00
2024-05-09T23:28:08.136Z,100.00
2024-05-09T23:30:38.849Z,100.00
2024-05-09T23:33:09.194Z,100.00
2024-05-09T23:35:36.317Z,100.00
2024-05-09T23:38:03.328Z,100.00
2024-05-09T23:40:38.332Z,100.00
2024-05-09T23:43:11.742Z,100.00
2024-05-09T23:45:39.433Z,100.00
2024-05-09T23:48:06.889Z,100.00
2024-05-09T23:50:36.879Z,100.00
2024-05-09T23:53:06.971Z,100.00
2024-05-09T23:55:35.023Z,100.00
2024-05-09T23:58:01.903Z,100.00
